sensor_id;sensor_type;location;lat;lon;timestamp;P1;durP1;ratioP1;P2;durP2;ratioP2
80297;SDS011;69599;52.622;9.230;2023-07-16T00:01:13;3.75;;;1.70;;
80297;SDS011;69599;52.622;9.230;2023-07-16T00:03:38;2.88;;;1.40;;
80297;SDS011;69599;52.622;9.230;2023-07-16T00:06:04;2.83;;;1.42;;
80297;SDS011;69599;52.622;9.230;2023-07-16T00:08:29;3.17;;;1.27;;
80297;SDS011;69599;52.622;9.230;2023-07-16T00:10:54;1.95;;;1.20;;
80297;SDS011;69599;52.622;9.230;2023-07-16T00:13:20;3.22;;;1.40;;
80297;SDS011;69599;52.622;9.230;2023-07-16T00:15:45;2.38;;;1.20;;
80297;SDS011;69599;52.622;9.230;2023-07-16T00:18:10;4.00;;;1.33;;
80297;SDS011;69599;52.622;9.230;2023-07-16T00:20:36;2.97;;;1.40;;
80297;SDS011;69599;52.622;9.230;2023-07-16T00:23:01;2.42;;;1.20;;
80297;SDS011;69599;52.622;9.230;2023-07-16T00:25:27;1.88;;;1.10;;
80297;SDS011;69599;52.622;9.230;2023-07-16T00:27:52;2.95;;;1.50;;
80297;SDS011;69599;52.622;9.230;2023-07-16T00:30:17;2.28;;;1.50;;
80297;SDS011;69599;52.622;9.230;2023-07-16T00:32:43;2.95;;;1.08;;
80297;SDS011;69599;52.622;9.230;2023-07-16T00:35:08;8.18;;;3.72;;
80297;SDS011;69599;52.622;9.230;2023-07-16T00:37:34;2.90;;;1.52;;
80297;SDS011;69599;52.622;9.230;2023-07-16T00:40:00;3.42;;;1.55;;
80297;SDS011;69599;52.622;9.230;2023-07-16T00:42:25;2.70;;;1.38;;
80297;SDS011;69599;52.622;9.230;2023-07-16T00:44:50;2.65;;;1.75;;
80297;SDS011;69599;52.622;9.230;2023-07-16T00:47:16;1.90;;;1.30;;
80297;SDS011;69599;52.622;9.230;2023-07-16T00:49:41;2.10;;;1.30;;
80297;SDS011;69599;52.622;9.230;2023-07-16T00:52:09;2.50;;;1.30;;
80297;SDS011;69599;52.622;9.230;2023-07-16T00:54:37;4.30;;;1.77;;
80297;SDS011;69599;52.622;9.230;2023-07-16T00:57:03;3.10;;;1.30;;
80297;SDS011;69599;52.622;9.230;2023-07-16T00:59:28;5.40;;;1.48;;
80297;SDS011;69599;52.622;9.230;2023-07-16T01:01:54;4.60;;;1.48;;
80297;SDS011;69599;52.622;9.230;2023-07-16T01:04:19;3.47;;;1.20;;
80297;SDS011;69599;52.622;9.230;2023-07-16T01:06:46;3.33;;;1.60;;
80297;SDS011;69599;52.622;9.230;2023-07-16T01:09:20;4.05;;;1.55;;
80297;SDS011;69599;52.622;9.230;2023-07-16T01:11:46;3.05;;;1.60;;
80297;SDS011;69599;52.622;9.230;2023-07-16T01:14:13;2.97;;;1.35;;
80297;SDS011;69599;52.622;9.230;2023-07-16T01:16:40;2.00;;;1.20;;
80297;SDS011;69599;52.622;9.230;2023-07-16T01:19:06;2.33;;;1.33;;
80297;SDS011;69599;52.622;9.230;2023-07-16T01:30:14;3.53;;;1.70;;
80297;SDS011;69599;52.622;9.230;2023-07-16T01:32:43;3.58;;;1.75;;
80297;SDS011;69599;52.622;9.230;2023-07-16T01:35:09;4.22;;;1.77;;
80297;SDS011;69599;52.622;9.230;2023-07-16T01:37:35;3.63;;;1.92;;
80297;SDS011;69599;52.622;9.230;2023-07-16T01:40:01;4.88;;;2.45;;
80297;SDS011;69599;52.622;9.230;2023-07-16T01:42:28;4.00;;;2.65;;
80297;SDS011;69599;52.622;9.230;2023-07-16T01:44:54;3.70;;;2.15;;
80297;SDS011;69599;52.622;9.230;2023-07-16T01:49:50;4.75;;;2.35;;
80297;SDS011;69599;52.622;9.230;2023-07-16T01:52:15;4.00;;;2.72;;
80297;SDS011;69599;52.622;9.230;2023-07-16T01:54:40;4.22;;;2.10;;
80297;SDS011;69599;52.622;9.230;2023-07-16T01:57:06;5.50;;;2.20;;
80297;SDS011;69599;52.622;9.230;2023-07-16T01:59:31;3.80;;;2.45;;
80297;SDS011;69599;52.622;9.230;2023-07-16T02:01:57;4.85;;;2.20;;
80297;SDS011;69599;52.622;9.230;2023-07-16T02:04:22;3.95;;;1.98;;
80297;SDS011;69599;52.622;9.230;2023-07-16T02:06:48;5.82;;;2.28;;
80297;SDS011;69599;52.622;9.230;2023-07-16T02:09:13;2.70;;;1.90;;
80297;SDS011;69599;52.622;9.230;2023-07-16T02:11:39;2.40;;;1.50;;
80297;SDS011;69599;52.622;9.230;2023-07-16T02:14:04;4.88;;;2.10;;
80297;SDS011;69599;52.622;9.230;2023-07-16T02:16:30;4.10;;;1.75;;
80297;SDS011;69599;52.622;9.230;2023-07-16T02:18:55;4.47;;;2.15;;
80297;SDS011;69599;52.622;9.230;2023-07-16T02:21:20;2.83;;;1.73;;
80297;SDS011;69599;52.622;9.230;2023-07-16T02:23:46;5.40;;;1.98;;
80297;SDS011;69599;52.622;9.230;2023-07-16T02:26:11;5.50;;;2.28;;
80297;SDS011;69599;52.622;9.230;2023-07-16T02:28:36;5.68;;;2.08;;
80297;SDS011;69599;52.622;9.230;2023-07-16T02:31:02;4.18;;;1.90;;
80297;SDS011;69599;52.622;9.230;2023-07-16T02:33:28;3.15;;;1.90;;
80297;SDS011;69599;52.622;9.230;2023-07-16T02:35:53;3.05;;;1.63;;
80297;SDS011;69599;52.622;9.230;2023-07-16T02:38:19;4.47;;;1.80;;
80297;SDS011;69599;52.622;9.230;2023-07-16T02:40:44;4.72;;;1.73;;
80297;SDS011;69599;52.622;9.230;2023-07-16T02:43:10;3.30;;;1.70;;
80297;SDS011;69599;52.622;9.230;2023-07-16T02:45:36;2.90;;;1.73;;
80297;SDS011;69599;52.622;9.230;2023-07-16T02:48:01;5.88;;;1.73;;
80297;SDS011;69599;52.622;9.230;2023-07-16T02:50:27;3.28;;;1.70;;
80297;SDS011;69599;52.622;9.230;2023-07-16T02:52:52;3.13;;;1.70;;
80297;SDS011;69599;52.622;9.230;2023-07-16T02:55:18;3.40;;;1.50;;
80297;SDS011;69599;52.622;9.230;2023-07-16T02:57:43;2.83;;;1.50;;
80297;SDS011;69599;52.622;9.230;2023-07-16T03:00:09;2.05;;;1.30;;
80297;SDS011;69599;52.622;9.230;2023-07-16T03:02:34;2.90;;;1.73;;
80297;SDS011;69599;52.622;9.230;2023-07-16T03:05:00;2.92;;;1.65;;
80297;SDS011;69599;52.622;9.230;2023-07-16T03:07:25;3.42;;;1.50;;
80297;SDS011;69599;52.622;9.230;2023-07-16T03:09:50;2.58;;;1.40;;
80297;SDS011;69599;52.622;9.230;2023-07-16T03:12:16;3.22;;;1.70;;
80297;SDS011;69599;52.622;9.230;2023-07-16T03:14:41;4.78;;;1.70;;
80297;SDS011;69599;52.622;9.230;2023-07-16T03:17:07;3.15;;;1.63;;
80297;SDS011;69599;52.622;9.230;2023-07-16T03:19:32;7.50;;;2.20;;
80297;SDS011;69599;52.622;9.230;2023-07-16T03:21:58;3.78;;;1.48;;
80297;SDS011;69599;52.622;9.230;2023-07-16T03:24:23;2.63;;;1.50;;
80297;SDS011;69599;52.622;9.230;2023-07-16T03:26:49;2.67;;;1.50;;
80297;SDS011;69599;52.622;9.230;2023-07-16T03:29:14;2.17;;;1.25;;
80297;SDS011;69599;52.622;9.230;2023-07-16T03:31:39;3.45;;;1.42;;
80297;SDS011;69599;52.622;9.230;2023-07-16T03:34:05;3.28;;;2.00;;
80297;SDS011;69599;52.622;9.230;2023-07-16T03:36:30;2.95;;;1.63;;
80297;SDS011;69599;52.622;9.230;2023-07-16T03:38:55;3.88;;;1.58;;
80297;SDS011;69599;52.622;9.230;2023-07-16T03:41:21;4.68;;;2.05;;
80297;SDS011;69599;52.622;9.230;2023-07-16T03:43:46;3.53;;;1.30;;
80297;SDS011;69599;52.622;9.230;2023-07-16T03:46:12;4.38;;;1.88;;
80297;SDS011;69599;52.622;9.230;2023-07-16T03:48:37;4.65;;;1.67;;
80297;SDS011;69599;52.622;9.230;2023-07-16T03:51:02;4.28;;;1.63;;
80297;SDS011;69599;52.622;9.230;2023-07-16T03:53:28;4.55;;;1.70;;
80297;SDS011;69599;52.622;9.230;2023-07-16T03:55:53;3.13;;;1.98;;
80297;SDS011;69599;52.622;9.230;2023-07-16T03:58:19;2.42;;;1.60;;
80297;SDS011;69599;52.622;9.230;2023-07-16T04:00:44;6.03;;;2.20;;
80297;SDS011;69599;52.622;9.230;2023-07-16T04:03:09;3.88;;;1.40;;
80297;SDS011;69599;52.622;9.230;2023-07-16T04:05:35;3.78;;;1.92;;
80297;SDS011;69599;52.622;9.230;2023-07-16T04:08:00;5.88;;;2.33;;
80297;SDS011;69599;52.622;9.230;2023-07-16T04:10:26;4.93;;;1.90;;
80297;SDS011;69599;52.622;9.230;2023-07-16T04:12:51;5.78;;;2.30;;
80297;SDS011;69599;52.622;9.230;2023-07-16T04:15:16;3.60;;;1.65;;
80297;SDS011;69599;52.622;9.230;2023-07-16T04:17:42;4.50;;;2.00;;
80297;SDS011;69599;52.622;9.230;2023-07-16T04:20:07;3.88;;;1.90;;
80297;SDS011;69599;52.622;9.230;2023-07-16T04:22:33;4.45;;;2.20;;
80297;SDS011;69599;52.622;9.230;2023-07-16T04:24:59;3.92;;;2.00;;
80297;SDS011;69599;52.622;9.230;2023-07-16T04:27:25;3.85;;;1.80;;
80297;SDS011;69599;52.622;9.230;2023-07-16T04:29:50;5.38;;;2.40;;
80297;SDS011;69599;52.622;9.230;2023-07-16T04:32:16;4.70;;;2.10;;
80297;SDS011;69599;52.622;9.230;2023-07-16T04:34:41;4.20;;;2.15;;
80297;SDS011;69599;52.622;9.230;2023-07-16T04:37:07;4.32;;;1.98;;
80297;SDS011;69599;52.622;9.230;2023-07-16T04:39:32;5.57;;;1.90;;
80297;SDS011;69599;52.622;9.230;2023-07-16T04:41:57;3.63;;;2.05;;
80297;SDS011;69599;52.622;9.230;2023-07-16T04:44:23;3.85;;;1.98;;
80297;SDS011;69599;52.622;9.230;2023-07-16T04:46:48;4.75;;;1.88;;
80297;SDS011;69599;52.622;9.230;2023-07-16T04:49:14;4.00;;;1.90;;
80297;SDS011;69599;52.622;9.230;2023-07-16T04:51:39;4.50;;;2.20;;
80297;SDS011;69599;52.622;9.230;2023-07-16T04:54:04;5.18;;;2.38;;
80297;SDS011;69599;52.622;9.230;2023-07-16T04:56:30;4.88;;;2.17;;
80297;SDS011;69599;52.622;9.230;2023-07-16T04:58:55;4.65;;;2.03;;
80297;SDS011;69599;52.622;9.230;2023-07-16T05:01:21;3.83;;;1.77;;
80297;SDS011;69599;52.622;9.230;2023-07-16T05:03:46;10.20;;;4.22;;
80297;SDS011;69599;52.622;9.230;2023-07-16T05:06:11;4.28;;;2.00;;
80297;SDS011;69599;52.622;9.230;2023-07-16T05:08:37;5.90;;;2.05;;
80297;SDS011;69599;52.622;9.230;2023-07-16T05:11:02;4.32;;;2.05;;
80297;SDS011;69599;52.622;9.230;2023-07-16T05:13:28;6.30;;;2.47;;
80297;SDS011;69599;52.622;9.230;2023-07-16T05:15:54;5.68;;;2.33;;
80297;SDS011;69599;52.622;9.230;2023-07-16T05:18:19;3.83;;;1.95;;
80297;SDS011;69599;52.622;9.230;2023-07-16T05:20:47;4.43;;;2.30;;
80297;SDS011;69599;52.622;9.230;2023-07-16T05:23:13;4.93;;;2.05;;
80297;SDS011;69599;52.622;9.230;2023-07-16T05:25:38;5.60;;;2.00;;
80297;SDS011;69599;52.622;9.230;2023-07-16T05:28:04;4.53;;;1.90;;
80297;SDS011;69599;52.622;9.230;2023-07-16T05:30:29;4.22;;;1.98;;
80297;SDS011;69599;52.622;9.230;2023-07-16T05:32:54;4.78;;;2.33;;
80297;SDS011;69599;52.622;9.230;2023-07-16T05:35:20;4.65;;;1.80;;
80297;SDS011;69599;52.622;9.230;2023-07-16T05:37:45;5.68;;;2.30;;
80297;SDS011;69599;52.622;9.230;2023-07-16T05:40:11;5.43;;;2.78;;
80297;SDS011;69599;52.622;9.230;2023-07-16T05:42:36;4.65;;;2.42;;
80297;SDS011;69599;52.622;9.230;2023-07-16T05:45:03;6.00;;;2.22;;
80297;SDS011;69599;52.622;9.230;2023-07-16T05:47:28;3.65;;;1.90;;
80297;SDS011;69599;52.622;9.230;2023-07-16T05:49:54;6.03;;;2.45;;
80297;SDS011;69599;52.622;9.230;2023-07-16T05:52:19;3.92;;;2.17;;
80297;SDS011;69599;52.622;9.230;2023-07-16T05:54:44;4.03;;;2.20;;
80297;SDS011;69599;52.622;9.230;2023-07-16T05:57:10;5.35;;;2.20;;
80297;SDS011;69599;52.622;9.230;2023-07-16T05:59:36;4.00;;;2.13;;
80297;SDS011;69599;52.622;9.230;2023-07-16T06:02:02;4.78;;;2.67;;
80297;SDS011;69599;52.622;9.230;2023-07-16T06:04:28;5.55;;;2.35;;
80297;SDS011;69599;52.622;9.230;2023-07-16T06:06:54;5.82;;;1.85;;
80297;SDS011;69599;52.622;9.230;2023-07-16T06:09:19;4.65;;;2.17;;
80297;SDS011;69599;52.622;9.230;2023-07-16T06:11:48;4.72;;;2.10;;
80297;SDS011;69599;52.622;9.230;2023-07-16T06:14:13;2.78;;;1.70;;
80297;SDS011;69599;52.622;9.230;2023-07-16T06:16:39;4.57;;;1.85;;
80297;SDS011;69599;52.622;9.230;2023-07-16T06:19:04;3.65;;;1.88;;
80297;SDS011;69599;52.622;9.230;2023-07-16T06:21:30;2.28;;;1.45;;
80297;SDS011;69599;52.622;9.230;2023-07-16T06:23:55;5.10;;;1.73;;
80297;SDS011;69599;52.622;9.230;2023-07-16T06:26:20;5.93;;;2.05;;
80297;SDS011;69599;52.622;9.230;2023-07-16T06:28:46;5.15;;;2.40;;
80297;SDS011;69599;52.622;9.230;2023-07-16T06:31:14;4.82;;;2.70;;
80297;SDS011;69599;52.622;9.230;2023-07-16T06:33:40;4.28;;;3.00;;
80297;SDS011;69599;52.622;9.230;2023-07-16T06:36:05;5.32;;;2.65;;
80297;SDS011;69599;52.622;9.230;2023-07-16T06:38:31;5.07;;;2.75;;
80297;SDS011;69599;52.622;9.230;2023-07-16T06:40:56;5.15;;;2.95;;
80297;SDS011;69599;52.622;9.230;2023-07-16T06:43:22;4.32;;;2.60;;
80297;SDS011;69599;52.622;9.230;2023-07-16T06:45:48;5.25;;;2.50;;
80297;SDS011;69599;52.622;9.230;2023-07-16T06:48:15;3.53;;;2.20;;
80297;SDS011;69599;52.622;9.230;2023-07-16T06:50:40;5.82;;;2.00;;
80297;SDS011;69599;52.622;9.230;2023-07-16T06:53:06;3.15;;;2.28;;
80297;SDS011;69599;52.622;9.230;2023-07-16T06:55:31;5.68;;;2.20;;
80297;SDS011;69599;52.622;9.230;2023-07-16T06:57:57;3.42;;;1.90;;
80297;SDS011;69599;52.622;9.230;2023-07-16T07:00:22;5.47;;;1.80;;
80297;SDS011;69599;52.622;9.230;2023-07-16T07:02:47;3.47;;;1.70;;
80297;SDS011;69599;52.622;9.230;2023-07-16T07:05:13;2.92;;;1.52;;
80297;SDS011;69599;52.622;9.230;2023-07-16T07:07:38;5.60;;;1.80;;
80297;SDS011;69599;52.622;9.230;2023-07-16T07:10:04;6.05;;;1.90;;
80297;SDS011;69599;52.622;9.230;2023-07-16T07:12:29;5.28;;;2.13;;
80297;SDS011;69599;52.622;9.230;2023-07-16T07:14:55;4.10;;;1.88;;
80297;SDS011;69599;52.622;9.230;2023-07-16T07:17:21;3.75;;;1.63;;
80297;SDS011;69599;52.622;9.230;2023-07-16T07:19:46;5.65;;;2.15;;
80297;SDS011;69599;52.622;9.230;2023-07-16T07:22:11;5.07;;;2.42;;
80297;SDS011;69599;52.622;9.230;2023-07-16T07:24:37;6.55;;;2.25;;
80297;SDS011;69599;52.622;9.230;2023-07-16T07:27:02;5.78;;;1.95;;
80297;SDS011;69599;52.622;9.230;2023-07-16T07:29:28;5.75;;;2.35;;
80297;SDS011;69599;52.622;9.230;2023-07-16T07:31:53;4.22;;;2.03;;
80297;SDS011;69599;52.622;9.230;2023-07-16T07:34:19;5.25;;;2.35;;
80297;SDS011;69599;52.622;9.230;2023-07-16T07:36:44;4.20;;;2.65;;
80297;SDS011;69599;52.622;9.230;2023-07-16T07:39:10;7.65;;;2.83;;
80297;SDS011;69599;52.622;9.230;2023-07-16T07:41:35;6.13;;;3.00;;
80297;SDS011;69599;52.622;9.230;2023-07-16T07:44:01;5.20;;;2.80;;
80297;SDS011;69599;52.622;9.230;2023-07-16T07:46:26;5.95;;;2.40;;
80297;SDS011;69599;52.622;9.230;2023-07-16T07:48:52;6.40;;;2.72;;
80297;SDS011;69599;52.622;9.230;2023-07-16T07:51:18;4.28;;;2.60;;
80297;SDS011;69599;52.622;9.230;2023-07-16T07:53:44;7.38;;;3.20;;
80297;SDS011;69599;52.622;9.230;2023-07-16T07:56:09;6.18;;;2.67;;
80297;SDS011;69599;52.622;9.230;2023-07-16T07:58:35;4.32;;;2.72;;
80297;SDS011;69599;52.622;9.230;2023-07-16T08:01:04;4.95;;;2.40;;
80297;SDS011;69599;52.622;9.230;2023-07-16T08:03:30;5.20;;;2.40;;
80297;SDS011;69599;52.622;9.230;2023-07-16T08:05:56;6.97;;;2.80;;
80297;SDS011;69599;52.622;9.230;2023-07-16T08:08:21;6.13;;;2.80;;
80297;SDS011;69599;52.622;9.230;2023-07-16T08:10:47;6.40;;;2.90;;
80297;SDS011;69599;52.622;9.230;2023-07-16T08:13:12;7.65;;;2.97;;
80297;SDS011;69599;52.622;9.230;2023-07-16T08:15:38;6.78;;;3.05;;
80297;SDS011;69599;52.622;9.230;2023-07-16T08:18:03;4.75;;;3.05;;
80297;SDS011;69599;52.622;9.230;2023-07-16T08:20:28;4.78;;;3.08;;
80297;SDS011;69599;52.622;9.230;2023-07-16T08:22:54;5.30;;;3.13;;
80297;SDS011;69599;52.622;9.230;2023-07-16T08:25:20;6.65;;;2.75;;
80297;SDS011;69599;52.622;9.230;2023-07-16T08:27:46;9.43;;;3.50;;
80297;SDS011;69599;52.622;9.230;2023-07-16T08:30:11;6.25;;;2.78;;
80297;SDS011;69599;52.622;9.230;2023-07-16T08:32:37;5.57;;;3.47;;
80297;SDS011;69599;52.622;9.230;2023-07-16T08:35:02;6.00;;;3.15;;
80297;SDS011;69599;52.622;9.230;2023-07-16T08:37:28;6.80;;;3.20;;
80297;SDS011;69599;52.622;9.230;2023-07-16T08:39:54;6.40;;;3.53;;
80297;SDS011;69599;52.622;9.230;2023-07-16T08:42:19;6.90;;;3.08;;
80297;SDS011;69599;52.622;9.230;2023-07-16T08:44:45;5.70;;;3.40;;
80297;SDS011;69599;52.622;9.230;2023-07-16T08:47:13;5.07;;;2.75;;
80297;SDS011;69599;52.622;9.230;2023-07-16T08:49:38;7.43;;;3.20;;
80297;SDS011;69599;52.622;9.230;2023-07-16T08:52:04;6.32;;;2.97;;
80297;SDS011;69599;52.622;9.230;2023-07-16T08:54:30;5.15;;;3.00;;
80297;SDS011;69599;52.622;9.230;2023-07-16T08:56:56;4.82;;;2.85;;
80297;SDS011;69599;52.622;9.230;2023-07-16T08:59:22;7.60;;;3.40;;
80297;SDS011;69599;52.622;9.230;2023-07-16T09:01:48;5.20;;;2.70;;
80297;SDS011;69599;52.622;9.230;2023-07-16T09:04:14;6.32;;;3.08;;
80297;SDS011;69599;52.622;9.230;2023-07-16T09:06:40;6.15;;;3.38;;
80297;SDS011;69599;52.622;9.230;2023-07-16T09:09:06;9.15;;;3.55;;
80297;SDS011;69599;52.622;9.230;2023-07-16T09:11:32;6.28;;;3.50;;
80297;SDS011;69599;52.622;9.230;2023-07-16T09:14:01;7.05;;;3.28;;
80297;SDS011;69599;52.622;9.230;2023-07-16T09:18:52;6.97;;;3.00;;
80297;SDS011;69599;52.622;9.230;2023-07-16T09:21:17;7.65;;;2.95;;
80297;SDS011;69599;52.622;9.230;2023-07-16T09:23:43;7.57;;;3.03;;
80297;SDS011;69599;52.622;9.230;2023-07-16T09:26:09;7.47;;;2.95;;
80297;SDS011;69599;52.622;9.230;2023-07-16T09:28:34;4.57;;;2.67;;
80297;SDS011;69599;52.622;9.230;2023-07-16T09:31:03;5.30;;;2.28;;
80297;SDS011;69599;52.622;9.230;2023-07-16T09:33:31;5.72;;;2.65;;
80297;SDS011;69599;52.622;9.230;2023-07-16T09:35:56;4.65;;;2.85;;
80297;SDS011;69599;52.622;9.230;2023-07-16T09:38:22;7.80;;;3.22;;
80297;SDS011;69599;52.622;9.230;2023-07-16T09:40:49;3.25;;;2.42;;
80297;SDS011;69599;52.622;9.230;2023-07-16T09:43:14;4.65;;;2.92;;
80297;SDS011;69599;52.622;9.230;2023-07-16T09:45:41;7.70;;;2.65;;
80297;SDS011;69599;52.622;9.230;2023-07-16T09:48:07;6.75;;;3.03;;
80297;SDS011;69599;52.622;9.230;2023-07-16T09:50:34;6.32;;;2.58;;
80297;SDS011;69599;52.622;9.230;2023-07-16T09:53:00;5.75;;;2.60;;
80297;SDS011;69599;52.622;9.230;2023-07-16T09:55:33;4.55;;;3.30;;
80297;SDS011;69599;52.622;9.230;2023-07-16T09:58:00;4.15;;;2.47;;
80297;SDS011;69599;52.622;9.230;2023-07-16T10:02:53;6.47;;;2.90;;
80297;SDS011;69599;52.622;9.230;2023-07-16T10:05:26;4.72;;;2.30;;
80297;SDS011;69599;52.622;9.230;2023-07-16T10:07:56;5.38;;;2.38;;
80297;SDS011;69599;52.622;9.230;2023-07-16T10:13:10;6.60;;;2.30;;
80297;SDS011;69599;52.622;9.230;2023-07-16T10:15:38;7.05;;;2.75;;
80297;SDS011;69599;52.622;9.230;2023-07-16T10:18:04;8.60;;;2.33;;
80297;SDS011;69599;52.622;9.230;2023-07-16T10:20:31;4.82;;;2.22;;
80297;SDS011;69599;52.622;9.230;2023-07-16T10:23:14;7.68;;;3.03;;
80297;SDS011;69599;52.622;9.230;2023-07-16T10:25:40;3.97;;;2.15;;
80297;SDS011;69599;52.622;9.230;2023-07-16T10:28:12;5.15;;;2.47;;
80297;SDS011;69599;52.622;9.230;2023-07-16T10:30:38;4.05;;;2.40;;
80297;SDS011;69599;52.622;9.230;2023-07-16T10:33:10;5.63;;;2.20;;
80297;SDS011;69599;52.622;9.230;2023-07-16T10:35:36;3.88;;;1.90;;
80297;SDS011;69599;52.622;9.230;2023-07-16T10:38:06;4.30;;;2.50;;
80297;SDS011;69599;52.622;9.230;2023-07-16T10:40:31;4.15;;;2.20;;
80297;SDS011;69599;52.622;9.230;2023-07-16T10:42:57;3.03;;;2.03;;
80297;SDS011;69599;52.622;9.230;2023-07-16T10:45:22;5.07;;;2.10;;
80297;SDS011;69599;52.622;9.230;2023-07-16T10:47:52;4.28;;;2.33;;
80297;SDS011;69599;52.622;9.230;2023-07-16T10:50:19;4.63;;;1.95;;
80297;SDS011;69599;52.622;9.230;2023-07-16T10:52:46;6.07;;;2.08;;
80297;SDS011;69599;52.622;9.230;2023-07-16T10:55:11;5.00;;;2.60;;
80297;SDS011;69599;52.622;9.230;2023-07-16T10:57:36;4.55;;;2.22;;
80297;SDS011;69599;52.622;9.230;2023-07-16T11:00:02;4.30;;;2.22;;
80297;SDS011;69599;52.622;9.230;2023-07-16T11:02:28;4.40;;;1.90;;
80297;SDS011;69599;52.622;9.230;2023-07-16T11:04:54;5.03;;;2.60;;
80297;SDS011;69599;52.622;9.230;2023-07-16T11:07:20;4.57;;;1.90;;
80297;SDS011;69599;52.622;9.230;2023-07-16T11:09:47;3.95;;;2.03;;
80297;SDS011;69599;52.622;9.230;2023-07-16T11:12:21;5.22;;;2.63;;
80297;SDS011;69599;52.622;9.230;2023-07-16T11:14:48;5.78;;;2.92;;
80297;SDS011;69599;52.622;9.230;2023-07-16T11:17:15;5.00;;;2.13;;
80297;SDS011;69599;52.622;9.230;2023-07-16T11:19:41;4.60;;;2.00;;
80297;SDS011;69599;52.622;9.230;2023-07-16T11:22:09;4.47;;;2.55;;
80297;SDS011;69599;52.622;9.230;2023-07-16T11:24:38;5.30;;;2.65;;
80297;SDS011;69599;52.622;9.230;2023-07-16T11:29:39;4.38;;;2.10;;
80297;SDS011;69599;52.622;9.230;2023-07-16T11:32:08;2.88;;;2.00;;
80297;SDS011;69599;52.622;9.230;2023-07-16T11:34:33;5.10;;;2.35;;
80297;SDS011;69599;52.622;9.230;2023-07-16T11:37:09;2.95;;;2.10;;
80297;SDS011;69599;52.622;9.230;2023-07-16T11:39:35;4.18;;;2.22;;
80297;SDS011;69599;52.622;9.230;2023-07-16T11:42:01;6.22;;;2.28;;
80297;SDS011;69599;52.622;9.230;2023-07-16T11:44:32;5.50;;;2.45;;
80297;SDS011;69599;52.622;9.230;2023-07-16T11:46:58;6.80;;;3.22;;
80297;SDS011;69599;52.622;9.230;2023-07-16T11:49:24;7.55;;;3.58;;
80297;SDS011;69599;52.622;9.230;2023-07-16T11:51:49;5.38;;;3.17;;
80297;SDS011;69599;52.622;9.230;2023-07-16T11:54:15;3.72;;;2.20;;
80297;SDS011;69599;52.622;9.230;2023-07-16T11:56:40;4.75;;;2.38;;
80297;SDS011;69599;52.622;9.230;2023-07-16T11:59:05;4.40;;;2.33;;
80297;SDS011;69599;52.622;9.230;2023-07-16T12:01:31;6.07;;;2.00;;
80297;SDS011;69599;52.622;9.230;2023-07-16T12:03:56;5.32;;;2.22;;
80297;SDS011;69599;52.622;9.230;2023-07-16T12:06:22;4.97;;;2.58;;
80297;SDS011;69599;52.622;9.230;2023-07-16T12:08:47;3.45;;;1.95;;
80297;SDS011;69599;52.622;9.230;2023-07-16T12:11:12;4.10;;;1.95;;
80297;SDS011;69599;52.622;9.230;2023-07-16T12:13:38;3.75;;;2.22;;
80297;SDS011;69599;52.622;9.230;2023-07-16T12:16:03;4.80;;;2.40;;
80297;SDS011;69599;52.622;9.230;2023-07-16T12:18:29;6.65;;;2.20;;
80297;SDS011;69599;52.622;9.230;2023-07-16T12:20:55;4.07;;;2.20;;
80297;SDS011;69599;52.622;9.230;2023-07-16T12:23:21;3.70;;;1.95;;
80297;SDS011;69599;52.622;9.230;2023-07-16T12:25:46;3.97;;;2.15;;
80297;SDS011;69599;52.622;9.230;2023-07-16T12:28:13;4.47;;;2.00;;
80297;SDS011;69599;52.622;9.230;2023-07-16T12:30:38;3.97;;;1.80;;
80297;SDS011;69599;52.622;9.230;2023-07-16T12:33:04;6.18;;;2.25;;
80297;SDS011;69599;52.622;9.230;2023-07-16T12:35:29;4.65;;;2.10;;
80297;SDS011;69599;52.622;9.230;2023-07-16T12:37:54;4.88;;;2.25;;
80297;SDS011;69599;52.622;9.230;2023-07-16T12:40:23;4.93;;;2.40;;
80297;SDS011;69599;52.622;9.230;2023-07-16T12:42:48;4.25;;;1.98;;
80297;SDS011;69599;52.622;9.230;2023-07-16T12:45:14;4.63;;;2.28;;
80297;SDS011;69599;52.622;9.230;2023-07-16T12:47:39;5.18;;;2.42;;
80297;SDS011;69599;52.622;9.230;2023-07-16T12:50:05;4.15;;;2.00;;
80297;SDS011;69599;52.622;9.230;2023-07-16T12:52:31;3.92;;;2.30;;
80297;SDS011;69599;52.622;9.230;2023-07-16T12:54:56;6.25;;;2.20;;
80297;SDS011;69599;52.622;9.230;2023-07-16T12:57:22;9.60;;;2.00;;
80297;SDS011;69599;52.622;9.230;2023-07-16T12:59:47;4.03;;;2.20;;
80297;SDS011;69599;52.622;9.230;2023-07-16T13:02:12;6.03;;;2.15;;
80297;SDS011;69599;52.622;9.230;2023-07-16T13:04:38;5.55;;;2.10;;
80297;SDS011;69599;52.622;9.230;2023-07-16T13:07:03;5.47;;;2.65;;
80297;SDS011;69599;52.622;9.230;2023-07-16T13:09:29;4.45;;;2.30;;
80297;SDS011;69599;52.622;9.230;2023-07-16T13:11:54;3.85;;;2.10;;
80297;SDS011;69599;52.622;9.230;2023-07-16T13:14:20;3.92;;;2.00;;
80297;SDS011;69599;52.622;9.230;2023-07-16T13:16:45;4.18;;;1.98;;
80297;SDS011;69599;52.622;9.230;2023-07-16T13:19:11;4.55;;;2.05;;
80297;SDS011;69599;52.622;9.230;2023-07-16T13:21:36;4.65;;;2.03;;
80297;SDS011;69599;52.622;9.230;2023-07-16T13:24:02;3.03;;;2.20;;
80297;SDS011;69599;52.622;9.230;2023-07-16T13:26:27;5.30;;;2.30;;
80297;SDS011;69599;52.622;9.230;2023-07-16T13:28:53;4.97;;;2.20;;
80297;SDS011;69599;52.622;9.230;2023-07-16T13:31:18;3.25;;;2.05;;
80297;SDS011;69599;52.622;9.230;2023-07-16T13:33:43;4.88;;;2.03;;
80297;SDS011;69599;52.622;9.230;2023-07-16T13:36:09;4.05;;;2.05;;
80297;SDS011;69599;52.622;9.230;2023-07-16T13:38:34;6.25;;;2.33;;
80297;SDS011;69599;52.622;9.230;2023-07-16T13:41:00;4.13;;;2.00;;
80297;SDS011;69599;52.622;9.230;2023-07-16T13:43:25;5.20;;;2.20;;
80297;SDS011;69599;52.622;9.230;2023-07-16T13:45:51;4.40;;;2.10;;
80297;SDS011;69599;52.622;9.230;2023-07-16T13:48:16;4.75;;;2.33;;
80297;SDS011;69599;52.622;9.230;2023-07-16T13:50:41;4.22;;;2.03;;
80297;SDS011;69599;52.622;9.230;2023-07-16T13:53:07;4.32;;;2.10;;
80297;SDS011;69599;52.622;9.230;2023-07-16T13:55:32;3.83;;;2.10;;
80297;SDS011;69599;52.622;9.230;2023-07-16T13:57:58;6.55;;;2.40;;
80297;SDS011;69599;52.622;9.230;2023-07-16T14:00:23;4.70;;;2.30;;
80297;SDS011;69599;52.622;9.230;2023-07-16T14:02:48;4.72;;;2.00;;
80297;SDS011;69599;52.622;9.230;2023-07-16T14:05:14;5.15;;;2.53;;
80297;SDS011;69599;52.622;9.230;2023-07-16T14:07:39;5.00;;;2.20;;
80297;SDS011;69599;52.622;9.230;2023-07-16T14:10:05;4.80;;;2.40;;
80297;SDS011;69599;52.622;9.230;2023-07-16T14:12:31;4.28;;;2.30;;
80297;SDS011;69599;52.622;9.230;2023-07-16T14:14:56;7.80;;;2.67;;
80297;SDS011;69599;52.622;9.230;2023-07-16T14:17:21;3.10;;;1.90;;
80297;SDS011;69599;52.622;9.230;2023-07-16T14:19:48;5.25;;;2.33;;
80297;SDS011;69599;52.622;9.230;2023-07-16T14:22:14;5.75;;;2.08;;
80297;SDS011;69599;52.622;9.230;2023-07-16T14:24:40;5.70;;;2.47;;
80297;SDS011;69599;52.622;9.230;2023-07-16T14:27:06;5.13;;;2.33;;
80297;SDS011;69599;52.622;9.230;2023-07-16T14:29:33;4.25;;;2.33;;
80297;SDS011;69599;52.622;9.230;2023-07-16T14:31:59;3.88;;;2.22;;
80297;SDS011;69599;52.622;9.230;2023-07-16T14:34:27;5.55;;;2.90;;
80297;SDS011;69599;52.622;9.230;2023-07-16T14:36:53;4.80;;;2.25;;
80297;SDS011;69599;52.622;9.230;2023-07-16T14:39:18;3.05;;;2.20;;
80297;SDS011;69599;52.622;9.230;2023-07-16T14:41:44;3.17;;;2.10;;
80297;SDS011;69599;52.622;9.230;2023-07-16T14:44:10;7.00;;;2.90;;
80297;SDS011;69599;52.622;9.230;2023-07-16T14:46:36;5.65;;;2.40;;
80297;SDS011;69599;52.622;9.230;2023-07-16T14:49:02;4.43;;;2.33;;
80297;SDS011;69599;52.622;9.230;2023-07-16T14:51:28;5.30;;;2.30;;
80297;SDS011;69599;52.622;9.230;2023-07-16T14:53:54;4.88;;;2.15;;
80297;SDS011;69599;52.622;9.230;2023-07-16T14:56:20;3.88;;;2.22;;
80297;SDS011;69599;52.622;9.230;2023-07-16T14:58:46;5.65;;;2.30;;
80297;SDS011;69599;52.622;9.230;2023-07-16T15:01:11;3.22;;;1.95;;